sensor_id;sensor_type;location;lat;lon;timestamp;P1;durP1;ratioP1;P2;durP2;ratioP2
49572;SDS011;35476;52.466;13.364;2022-11-18T00:02:05;47.07;;;29.47;;
49572;SDS011;35476;52.466;13.364;2022-11-18T00:04:30;38.50;;;27.97;;
49572;SDS011;35476;52.466;13.364;2022-11-18T00:06:56;46.70;;;31.45;;
49572;SDS011;35476;52.466;13.364;2022-11-18T00:09:21;44.17;;;30.20;;
49572;SDS011;35476;52.466;13.364;2022-11-18T00:11:46;45.28;;;30.95;;
49572;SDS011;35476;52.466;13.364;2022-11-18T00:14:30;43.15;;;31.23;;
49572;SDS011;35476;52.466;13.364;2022-11-18T00:19:22;52.77;;;31.20;;
49572;SDS011;35476;52.466;13.364;2022-11-18T00:21:48;46.90;;;32.17;;
49572;SDS011;35476;52.466;13.364;2022-11-18T00:24:13;47.20;;;32.35;;
49572;SDS011;35476;52.466;13.364;2022-11-18T00:26:38;49.47;;;33.33;;
49572;SDS011;35476;52.466;13.364;2022-11-18T00:29:04;49.63;;;31.42;;
49572;SDS011;35476;52.466;13.364;2022-11-18T00:31:29;51.65;;;35.13;;
49572;SDS011;35476;52.466;13.364;2022-11-18T00:33:54;44.70;;;30.08;;
49572;SDS011;35476;52.466;13.364;2022-11-18T00:36:19;49.40;;;32.40;;
49572;SDS011;35476;52.466;13.364;2022-11-18T00:38:45;45.97;;;31.05;;
49572;SDS011;35476;52.466;13.364;2022-11-18T00:41:11;46.23;;;28.77;;
49572;SDS011;35476;52.466;13.364;2022-11-18T00:43:37;45.25;;;29.35;;
49572;SDS011;35476;52.466;13.364;2022-11-18T00:46:02;43.35;;;29.13;;
49572;SDS011;35476;52.466;13.364;2022-11-18T00:48:28;49.15;;;33.13;;
49572;SDS011;35476;52.466;13.364;2022-11-18T00:50:54;47.13;;;33.20;;
49572;SDS011;35476;52.466;13.364;2022-11-18T00:53:21;49.08;;;32.25;;
49572;SDS011;35476;52.466;13.364;2022-11-18T00:55:46;46.08;;;32.40;;
49572;SDS011;35476;52.466;13.364;2022-11-18T00:58:12;43.83;;;28.98;;
49572;SDS011;35476;52.466;13.364;2022-11-18T01:00:45;41.70;;;31.23;;
49572;SDS011;35476;52.466;13.364;2022-11-18T01:03:12;42.90;;;31.40;;
49572;SDS011;35476;52.466;13.364;2022-11-18T01:05:38;46.92;;;28.10;;
49572;SDS011;35476;52.466;13.364;2022-11-18T01:08:04;44.35;;;29.80;;
49572;SDS011;35476;52.466;13.364;2022-11-18T01:10:30;44.88;;;33.08;;
49572;SDS011;35476;52.466;13.364;2022-11-18T01:12:55;42.57;;;30.07;;
49572;SDS011;35476;52.466;13.364;2022-11-18T01:15:43;44.08;;;33.03;;
49572;SDS011;35476;52.466;13.364;2022-11-18T01:18:08;41.58;;;28.92;;
49572;SDS011;35476;52.466;13.364;2022-11-18T01:20:34;41.85;;;29.55;;
49572;SDS011;35476;52.466;13.364;2022-11-18T01:23:00;44.65;;;29.63;;
49572;SDS011;35476;52.466;13.364;2022-11-18T01:25:25;43.28;;;29.42;;
49572;SDS011;35476;52.466;13.364;2022-11-18T01:27:50;41.53;;;28.60;;
49572;SDS011;35476;52.466;13.364;2022-11-18T01:30:15;38.33;;;28.25;;
49572;SDS011;35476;52.466;13.364;2022-11-18T01:32:41;43.20;;;30.90;;
49572;SDS011;35476;52.466;13.364;2022-11-18T01:35:06;40.08;;;30.27;;
49572;SDS011;35476;52.466;13.364;2022-11-18T01:37:32;36.15;;;26.15;;
49572;SDS011;35476;52.466;13.364;2022-11-18T01:39:57;37.20;;;28.77;;
49572;SDS011;35476;52.466;13.364;2022-11-18T01:42:22;32.70;;;25.73;;
49572;SDS011;35476;52.466;13.364;2022-11-18T01:47:16;36.58;;;27.15;;
49572;SDS011;35476;52.466;13.364;2022-11-18T01:49:41;31.75;;;25.48;;
49572;SDS011;35476;52.466;13.364;2022-11-18T01:52:07;31.48;;;25.95;;
49572;SDS011;35476;52.466;13.364;2022-11-18T01:54:33;32.20;;;25.27;;
49572;SDS011;35476;52.466;13.364;2022-11-18T01:57:00;38.30;;;28.23;;
49572;SDS011;35476;52.466;13.364;2022-11-18T01:59:26;38.78;;;27.10;;
49572;SDS011;35476;52.466;13.364;2022-11-18T02:01:54;33.22;;;26.15;;
49572;SDS011;35476;52.466;13.364;2022-11-18T02:04:19;34.30;;;25.52;;
49572;SDS011;35476;52.466;13.364;2022-11-18T02:06:45;34.70;;;25.20;;
49572;SDS011;35476;52.466;13.364;2022-11-18T02:09:11;40.10;;;26.17;;
49572;SDS011;35476;52.466;13.364;2022-11-18T02:11:36;33.38;;;25.50;;
49572;SDS011;35476;52.466;13.364;2022-11-18T02:14:21;37.92;;;27.63;;
49572;SDS011;35476;52.466;13.364;2022-11-18T02:32:00;36.20;;;26.85;;
49572;SDS011;35476;52.466;13.364;2022-11-18T02:34:40;35.47;;;25.95;;
49572;SDS011;35476;52.466;13.364;2022-11-18T02:42:17;36.83;;;26.70;;
49572;SDS011;35476;52.466;13.364;2022-11-18T02:44:44;37.00;;;24.48;;
49572;SDS011;35476;52.466;13.364;2022-11-18T02:47:12;39.08;;;27.88;;
49572;SDS011;35476;52.466;13.364;2022-11-18T02:49:40;37.42;;;25.83;;
49572;SDS011;35476;52.466;13.364;2022-11-18T02:52:07;37.42;;;28.02;;
49572;SDS011;35476;52.466;13.364;2022-11-18T02:54:33;36.60;;;26.17;;
49572;SDS011;35476;52.466;13.364;2022-11-18T02:57:01;35.47;;;27.33;;
49572;SDS011;35476;52.466;13.364;2022-11-18T02:59:26;38.60;;;28.70;;
49572;SDS011;35476;52.466;13.364;2022-11-18T03:01:52;38.63;;;27.67;;
49572;SDS011;35476;52.466;13.364;2022-11-18T03:04:17;35.55;;;27.40;;
49572;SDS011;35476;52.466;13.364;2022-11-18T03:06:48;37.13;;;28.50;;
49572;SDS011;35476;52.466;13.364;2022-11-18T03:09:25;39.47;;;26.95;;
49572;SDS011;35476;52.466;13.364;2022-11-18T03:19:55;38.30;;;28.13;;
49572;SDS011;35476;52.466;13.364;2022-11-18T03:22:25;36.47;;;26.50;;
49572;SDS011;35476;52.466;13.364;2022-11-18T03:24:55;35.72;;;26.60;;
49572;SDS011;35476;52.466;13.364;2022-11-18T03:27:30;37.95;;;29.70;;
49572;SDS011;35476;52.466;13.364;2022-11-18T03:30:04;38.10;;;29.23;;
49572;SDS011;35476;52.466;13.364;2022-11-18T03:32:32;38.08;;;28.85;;
49572;SDS011;35476;52.466;13.364;2022-11-18T03:35:01;40.42;;;29.90;;
49572;SDS011;35476;52.466;13.364;2022-11-18T03:37:27;41.53;;;28.98;;
49572;SDS011;35476;52.466;13.364;2022-11-18T03:39:53;39.05;;;28.52;;
49572;SDS011;35476;52.466;13.364;2022-11-18T03:42:30;40.75;;;29.80;;
49572;SDS011;35476;52.466;13.364;2022-11-18T03:45:04;38.60;;;29.98;;
49572;SDS011;35476;52.466;13.364;2022-11-18T03:47:43;40.08;;;28.77;;
49572;SDS011;35476;52.466;13.364;2022-11-18T03:50:15;42.53;;;30.70;;
49572;SDS011;35476;52.466;13.364;2022-11-18T03:52:40;39.50;;;31.05;;
49572;SDS011;35476;52.466;13.364;2022-11-18T03:55:11;44.35;;;31.13;;
49572;SDS011;35476;52.466;13.364;2022-11-18T03:57:41;44.05;;;33.00;;
49572;SDS011;35476;52.466;13.364;2022-11-18T04:00:10;42.33;;;31.58;;
49572;SDS011;35476;52.466;13.364;2022-11-18T04:02:35;41.75;;;32.70;;
49572;SDS011;35476;52.466;13.364;2022-11-18T04:05:02;42.75;;;30.48;;
49572;SDS011;35476;52.466;13.364;2022-11-18T04:09:56;43.87;;;31.43;;
49572;SDS011;35476;52.466;13.364;2022-11-18T04:12:24;44.22;;;32.88;;
49572;SDS011;35476;52.466;13.364;2022-11-18T04:14:50;39.38;;;29.00;;
49572;SDS011;35476;52.466;13.364;2022-11-18T04:17:20;38.20;;;28.10;;
49572;SDS011;35476;52.466;13.364;2022-11-18T04:19:46;40.97;;;32.05;;
49572;SDS011;35476;52.466;13.364;2022-11-18T04:22:11;41.50;;;27.48;;
49572;SDS011;35476;52.466;13.364;2022-11-18T04:24:37;39.10;;;28.20;;
49572;SDS011;35476;52.466;13.364;2022-11-18T04:27:02;42.15;;;29.70;;
49572;SDS011;35476;52.466;13.364;2022-11-18T04:29:28;48.78;;;31.65;;
49572;SDS011;35476;52.466;13.364;2022-11-18T04:31:54;43.70;;;31.35;;
49572;SDS011;35476;52.466;13.364;2022-11-18T04:34:19;43.33;;;28.85;;
49572;SDS011;35476;52.466;13.364;2022-11-18T04:36:44;43.93;;;32.40;;
49572;SDS011;35476;52.466;13.364;2022-11-18T04:39:09;44.85;;;31.88;;
49572;SDS011;35476;52.466;13.364;2022-11-18T04:41:34;52.90;;;34.13;;
49572;SDS011;35476;52.466;13.364;2022-11-18T04:46:44;47.25;;;34.22;;
49572;SDS011;35476;52.466;13.364;2022-11-18T04:49:09;44.78;;;34.33;;
49572;SDS011;35476;52.466;13.364;2022-11-18T04:51:35;42.80;;;31.05;;
49572;SDS011;35476;52.466;13.364;2022-11-18T04:54:01;49.80;;;33.72;;
49572;SDS011;35476;52.466;13.364;2022-11-18T04:56:26;48.85;;;33.67;;
49572;SDS011;35476;52.466;13.364;2022-11-18T04:58:51;44.77;;;31.63;;
49572;SDS011;35476;52.466;13.364;2022-11-18T05:01:16;48.40;;;35.20;;
49572;SDS011;35476;52.466;13.364;2022-11-18T05:03:42;51.37;;;35.87;;
49572;SDS011;35476;52.466;13.364;2022-11-18T05:06:07;50.65;;;34.95;;
49572;SDS011;35476;52.466;13.364;2022-11-18T05:08:32;48.00;;;34.63;;
49572;SDS011;35476;52.466;13.364;2022-11-18T05:10:57;50.15;;;36.17;;
49572;SDS011;35476;52.466;13.364;2022-11-18T05:13:42;49.25;;;33.00;;
49572;SDS011;35476;52.466;13.364;2022-11-18T05:16:08;55.00;;;36.20;;
49572;SDS011;35476;52.466;13.364;2022-11-18T05:18:33;48.83;;;34.20;;
49572;SDS011;35476;52.466;13.364;2022-11-18T05:20:58;57.07;;;34.77;;
49572;SDS011;35476;52.466;13.364;2022-11-18T05:23:23;50.83;;;37.20;;
49572;SDS011;35476;52.466;13.364;2022-11-18T05:25:48;54.27;;;34.80;;
49572;SDS011;35476;52.466;13.364;2022-11-18T05:28:13;55.53;;;38.00;;
49572;SDS011;35476;52.466;13.364;2022-11-18T05:30:39;51.08;;;35.05;;
49572;SDS011;35476;52.466;13.364;2022-11-18T05:33:04;52.30;;;36.03;;
49572;SDS011;35476;52.466;13.364;2022-11-18T05:35:29;52.17;;;35.97;;
49572;SDS011;35476;52.466;13.364;2022-11-18T05:37:54;57.13;;;37.73;;
49572;SDS011;35476;52.466;13.364;2022-11-18T05:40:19;55.20;;;36.87;;
49572;SDS011;35476;52.466;13.364;2022-11-18T05:42:45;57.00;;;37.17;;
49572;SDS011;35476;52.466;13.364;2022-11-18T05:45:29;55.47;;;36.47;;
49572;SDS011;35476;52.466;13.364;2022-11-18T05:47:54;55.77;;;36.87;;
49572;SDS011;35476;52.466;13.364;2022-11-18T05:50:25;55.65;;;36.05;;
49572;SDS011;35476;52.466;13.364;2022-11-18T05:52:50;59.35;;;37.47;;
49572;SDS011;35476;52.466;13.364;2022-11-18T05:55:16;52.13;;;32.67;;
49572;SDS011;35476;52.466;13.364;2022-11-18T05:57:41;47.85;;;32.53;;
49572;SDS011;35476;52.466;13.364;2022-11-18T06:00:07;45.67;;;31.83;;
49572;SDS011;35476;52.466;13.364;2022-11-18T06:02:32;47.95;;;34.03;;
49572;SDS011;35476;52.466;13.364;2022-11-18T06:04:58;49.90;;;33.95;;
49572;SDS011;35476;52.466;13.364;2022-11-18T06:07:26;47.22;;;29.52;;
49572;SDS011;35476;52.466;13.364;2022-11-18T06:09:54;47.83;;;33.15;;
49572;SDS011;35476;52.466;13.364;2022-11-18T06:12:22;49.10;;;31.65;;
49572;SDS011;35476;52.466;13.364;2022-11-18T06:14:49;40.53;;;28.50;;
49572;SDS011;35476;52.466;13.364;2022-11-18T06:17:21;41.83;;;28.38;;
49572;SDS011;35476;52.466;13.364;2022-11-18T06:19:47;40.55;;;28.02;;
49572;SDS011;35476;52.466;13.364;2022-11-18T06:22:13;42.03;;;30.40;;
49572;SDS011;35476;52.466;13.364;2022-11-18T06:24:38;39.70;;;26.38;;
49572;SDS011;35476;52.466;13.364;2022-11-18T06:27:04;39.88;;;28.77;;
49572;SDS011;35476;52.466;13.364;2022-11-18T06:29:29;36.83;;;25.50;;
49572;SDS011;35476;52.466;13.364;2022-11-18T06:31:54;37.38;;;29.40;;
49572;SDS011;35476;52.466;13.364;2022-11-18T06:34:20;35.78;;;25.48;;
49572;SDS011;35476;52.466;13.364;2022-11-18T06:36:45;32.38;;;23.83;;
49572;SDS011;35476;52.466;13.364;2022-11-18T06:39:10;35.47;;;25.63;;
49572;SDS011;35476;52.466;13.364;2022-11-18T06:41:35;33.45;;;22.92;;
49572;SDS011;35476;52.466;13.364;2022-11-18T06:44:00;35.72;;;23.80;;
49572;SDS011;35476;52.466;13.364;2022-11-18T06:46:26;34.07;;;24.97;;
49572;SDS011;35476;52.466;13.364;2022-11-18T06:49:10;32.60;;;24.20;;
49572;SDS011;35476;52.466;13.364;2022-11-18T06:51:35;37.42;;;23.45;;
49572;SDS011;35476;52.466;13.364;2022-11-18T06:54:00;31.80;;;24.30;;
49572;SDS011;35476;52.466;13.364;2022-11-18T06:56:25;36.53;;;27.08;;
49572;SDS011;35476;52.466;13.364;2022-11-18T06:58:52;37.38;;;24.60;;
49572;SDS011;35476;52.466;13.364;2022-11-18T07:01:18;36.85;;;26.42;;
49572;SDS011;35476;52.466;13.364;2022-11-18T07:03:45;32.40;;;23.08;;
49572;SDS011;35476;52.466;13.364;2022-11-18T07:06:11;37.35;;;23.42;;
49572;SDS011;35476;52.466;13.364;2022-11-18T07:08:37;39.70;;;25.65;;
49572;SDS011;35476;52.466;13.364;2022-11-18T07:11:03;32.70;;;22.25;;
49572;SDS011;35476;52.466;13.364;2022-11-18T07:13:29;41.28;;;25.80;;
49572;SDS011;35476;52.466;13.364;2022-11-18T07:15:55;36.90;;;25.38;;
49572;SDS011;35476;52.466;13.364;2022-11-18T07:18:20;35.83;;;25.73;;
49572;SDS011;35476;52.466;13.364;2022-11-18T07:20:45;36.47;;;25.60;;
49572;SDS011;35476;52.466;13.364;2022-11-18T07:23:10;41.30;;;27.65;;
49572;SDS011;35476;52.466;13.364;2022-11-18T07:25:35;35.90;;;25.03;;
49572;SDS011;35476;52.466;13.364;2022-11-18T07:28:00;37.40;;;26.53;;
49572;SDS011;35476;52.466;13.364;2022-11-18T07:30:26;39.77;;;25.20;;
49572;SDS011;35476;52.466;13.364;2022-11-18T07:32:51;32.00;;;23.63;;
49572;SDS011;35476;52.466;13.364;2022-11-18T07:35:16;35.20;;;26.13;;
49572;SDS011;35476;52.466;13.364;2022-11-18T07:37:42;35.53;;;25.10;;
49572;SDS011;35476;52.466;13.364;2022-11-18T07:40:08;37.08;;;26.92;;
49572;SDS011;35476;52.466;13.364;2022-11-18T07:42:33;34.70;;;23.80;;
49572;SDS011;35476;52.466;13.364;2022-11-18T07:45:07;38.27;;;25.93;;
49572;SDS011;35476;52.466;13.364;2022-11-18T07:47:32;32.83;;;23.40;;
49572;SDS011;35476;52.466;13.364;2022-11-18T07:49:58;33.15;;;23.10;;
49572;SDS011;35476;52.466;13.364;2022-11-18T07:52:23;34.30;;;24.67;;
49572;SDS011;35476;52.466;13.364;2022-11-18T07:54:48;34.28;;;24.58;;
49572;SDS011;35476;52.466;13.364;2022-11-18T07:57:13;30.80;;;22.33;;
49572;SDS011;35476;52.466;13.364;2022-11-18T07:59:39;31.23;;;23.23;;
49572;SDS011;35476;52.466;13.364;2022-11-18T08:02:04;33.97;;;21.73;;
49572;SDS011;35476;52.466;13.364;2022-11-18T08:04:30;33.20;;;21.27;;
49572;SDS011;35476;52.466;13.364;2022-11-18T08:06:55;32.03;;;22.80;;
49572;SDS011;35476;52.466;13.364;2022-11-18T08:09:21;32.40;;;21.70;;
49572;SDS011;35476;52.466;13.364;2022-11-18T08:11:46;33.92;;;22.88;;
49572;SDS011;35476;52.466;13.364;2022-11-18T08:14:11;33.47;;;23.83;;
49572;SDS011;35476;52.466;13.364;2022-11-18T08:16:36;30.70;;;23.80;;
49572;SDS011;35476;52.466;13.364;2022-11-18T08:19:02;33.80;;;24.08;;
49572;SDS011;35476;52.466;13.364;2022-11-18T08:21:27;31.57;;;22.00;;
49572;SDS011;35476;52.466;13.364;2022-11-18T08:23:53;29.85;;;22.58;;
49572;SDS011;35476;52.466;13.364;2022-11-18T08:26:18;30.70;;;24.42;;
49572;SDS011;35476;52.466;13.364;2022-11-18T08:28:44;25.75;;;21.05;;
49572;SDS011;35476;52.466;13.364;2022-11-18T08:33:34;31.33;;;23.30;;
49572;SDS011;35476;52.466;13.364;2022-11-18T08:36:04;27.67;;;21.52;;
49572;SDS011;35476;52.466;13.364;2022-11-18T08:38:29;28.85;;;22.10;;
49572;SDS011;35476;52.466;13.364;2022-11-18T08:40:54;25.53;;;18.97;;
49572;SDS011;35476;52.466;13.364;2022-11-18T08:43:20;29.05;;;22.38;;
49572;SDS011;35476;52.466;13.364;2022-11-18T08:45:45;27.67;;;21.52;;
49572;SDS011;35476;52.466;13.364;2022-11-18T08:48:10;28.25;;;20.90;;
49572;SDS011;35476;52.466;13.364;2022-11-18T08:50:35;28.58;;;21.20;;
49572;SDS011;35476;52.466;13.364;2022-11-18T08:53:01;26.40;;;21.42;;
49572;SDS011;35476;52.466;13.364;2022-11-18T08:55:26;26.52;;;20.33;;
49572;SDS011;35476;52.466;13.364;2022-11-18T08:57:51;26.00;;;19.50;;
49572;SDS011;35476;52.466;13.364;2022-11-18T09:00:17;33.93;;;24.07;;
49572;SDS011;35476;52.466;13.364;2022-11-18T09:02:42;25.33;;;18.25;;
49572;SDS011;35476;52.466;13.364;2022-11-18T09:05:07;27.80;;;20.47;;
49572;SDS011;35476;52.466;13.364;2022-11-18T09:07:32;27.35;;;19.60;;
49572;SDS011;35476;52.466;13.364;2022-11-18T09:09:58;25.55;;;19.08;;
49572;SDS011;35476;52.466;13.364;2022-11-18T09:12:23;29.67;;;20.17;;
49572;SDS011;35476;52.466;13.364;2022-11-18T09:14:48;30.65;;;20.77;;
49572;SDS011;35476;52.466;13.364;2022-11-18T09:17:13;26.55;;;20.80;;
49572;SDS011;35476;52.466;13.364;2022-11-18T09:19:39;24.95;;;19.83;;
49572;SDS011;35476;52.466;13.364;2022-11-18T09:22:04;28.52;;;20.30;;
49572;SDS011;35476;52.466;13.364;2022-11-18T09:24:30;26.98;;;20.27;;
49572;SDS011;35476;52.466;13.364;2022-11-18T09:26:55;29.27;;;19.08;;
49572;SDS011;35476;52.466;13.364;2022-11-18T09:29:20;26.80;;;17.67;;
49572;SDS011;35476;52.466;13.364;2022-11-18T09:31:52;26.98;;;19.15;;
49572;SDS011;35476;52.466;13.364;2022-11-18T09:34:17;28.80;;;21.42;;
49572;SDS011;35476;52.466;13.364;2022-11-18T09:36:43;27.77;;;19.15;;
49572;SDS011;35476;52.466;13.364;2022-11-18T09:39:08;26.70;;;19.25;;
49572;SDS011;35476;52.466;13.364;2022-11-18T09:49:24;22.60;;;18.13;;
49572;SDS011;35476;52.466;13.364;2022-11-18T09:51:50;26.25;;;18.55;;
49572;SDS011;35476;52.466;13.364;2022-11-18T09:56:41;21.35;;;15.07;;
49572;SDS011;35476;52.466;13.364;2022-11-18T09:59:08;20.50;;;15.57;;
49572;SDS011;35476;52.466;13.364;2022-11-18T10:01:35;25.08;;;15.80;;
49572;SDS011;35476;52.466;13.364;2022-11-18T10:04:00;20.42;;;16.13;;
49572;SDS011;35476;52.466;13.364;2022-11-18T10:06:30;21.00;;;14.43;;
49572;SDS011;35476;52.466;13.364;2022-11-18T10:19:19;15.43;;;12.15;;
49572;SDS011;35476;52.466;13.364;2022-11-18T10:24:32;18.23;;;12.55;;
49572;SDS011;35476;52.466;13.364;2022-11-18T10:26:59;14.98;;;11.48;;
49572;SDS011;35476;52.466;13.364;2022-11-18T10:29:25;14.15;;;12.20;;
49572;SDS011;35476;52.466;13.364;2022-11-18T10:37:24;13.02;;;10.25;;
49572;SDS011;35476;52.466;13.364;2022-11-18T10:39:51;13.52;;;10.60;;
49572;SDS011;35476;52.466;13.364;2022-11-18T10:42:40;12.95;;;10.07;;
49572;SDS011;35476;52.466;13.364;2022-11-18T10:50:36;14.73;;;10.00;;
49572;SDS011;35476;52.466;13.364;2022-11-18T10:53:03;14.38;;;10.27;;
49572;SDS011;35476;52.466;13.364;2022-11-18T10:55:29;16.17;;;10.02;;
49572;SDS011;35476;52.466;13.364;2022-11-18T10:58:15;14.18;;;10.68;;
49572;SDS011;35476;52.466;13.364;2022-11-18T11:00:41;12.48;;;9.60;;
49572;SDS011;35476;52.466;13.364;2022-11-18T11:05:44;11.85;;;8.98;;
49572;SDS011;35476;52.466;13.364;2022-11-18T11:08:20;12.43;;;8.63;;
49572;SDS011;35476;52.466;13.364;2022-11-18T11:10:56;11.25;;;8.57;;
49572;SDS011;35476;52.466;13.364;2022-11-18T11:13:22;11.65;;;7.25;;
49572;SDS011;35476;52.466;13.364;2022-11-18T11:15:47;11.68;;;8.73;;
49572;SDS011;35476;52.466;13.364;2022-11-18T11:20:59;14.73;;;10.60;;
49572;SDS011;35476;52.466;13.364;2022-11-18T11:23:24;12.50;;;9.82;;
49572;SDS011;35476;52.466;13.364;2022-11-18T11:25:55;12.25;;;10.00;;
49572;SDS011;35476;52.466;13.364;2022-11-18T11:28:35;12.07;;;9.10;;
49572;SDS011;35476;52.466;13.364;2022-11-18T11:31:16;13.32;;;10.35;;
49572;SDS011;35476;52.466;13.364;2022-11-18T11:33:55;17.65;;;10.45;;
49572;SDS011;35476;52.466;13.364;2022-11-18T11:59:09;13.55;;;9.70;;
49572;SDS011;35476;52.466;13.364;2022-11-18T12:06:44;12.68;;;9.20;;
49572;SDS011;35476;52.466;13.364;2022-11-18T12:11:46;11.77;;;10.43;;
49572;SDS011;35476;52.466;13.364;2022-11-18T12:17:20;15.27;;;11.57;;
49572;SDS011;35476;52.466;13.364;2022-11-18T12:19:37;16.13;;;11.07;;
49572;SDS011;35476;52.466;13.364;2022-11-18T12:22:03;14.00;;;11.38;;
49572;SDS011;35476;52.466;13.364;2022-11-18T12:24:39;15.98;;;9.77;;
49572;SDS011;35476;52.466;13.364;2022-11-18T12:27:10;15.82;;;10.50;;
49572;SDS011;35476;52.466;13.364;2022-11-18T12:32:02;16.87;;;9.50;;
49572;SDS011;35476;52.466;13.364;2022-11-18T12:34:41;14.00;;;9.38;;
49572;SDS011;35476;52.466;13.364;2022-11-18T12:39:47;13.43;;;9.55;;
49572;SDS011;35476;52.466;13.364;2022-11-18T12:48:02;10.25;;;8.23;;
49572;SDS011;35476;52.466;13.364;2022-11-18T12:50:45;10.30;;;7.78;;
49572;SDS011;35476;52.466;13.364;2022-11-18T12:53:11;11.50;;;7.82;;
49572;SDS011;35476;52.466;13.364;2022-11-18T12:55:52;12.32;;;8.05;;
49572;SDS011;35476;52.466;13.364;2022-11-18T12:58:23;10.77;;;8.32;;
49572;SDS011;35476;52.466;13.364;2022-11-18T13:00:49;10.45;;;7.20;;
49572;SDS011;35476;52.466;13.364;2022-11-18T13:03:21;10.18;;;8.65;;
49572;SDS011;35476;52.466;13.364;2022-11-18T13:05:50;12.43;;;7.28;;
49572;SDS011;35476;52.466;13.364;2022-11-18T13:08:21;10.23;;;7.95;;
49572;SDS011;35476;52.466;13.364;2022-11-18T13:10:50;10.07;;;7.60;;
49572;SDS011;35476;52.466;13.364;2022-11-18T13:13:24;10.48;;;7.75;;
49572;SDS011;35476;52.466;13.364;2022-11-18T13:15:49;9.98;;;8.13;;
49572;SDS011;35476;52.466;13.364;2022-11-18T13:18:33;9.85;;;7.18;;
49572;SDS011;35476;52.466;13.364;2022-11-18T13:21:10;14.43;;;7.75;;
49572;SDS011;35476;52.466;13.364;2022-11-18T13:23:58;9.65;;;7.25;;
49572;SDS011;35476;52.466;13.364;2022-11-18T13:34:02;13.10;;;7.53;;
49572;SDS011;35476;52.466;13.364;2022-11-18T13:36:29;9.30;;;7.90;;
49572;SDS011;35476;52.466;13.364;2022-11-18T13:41:21;10.07;;;6.83;;
49572;SDS011;35476;52.466;13.364;2022-11-18T13:44:08;9.73;;;8.35;;
49572;SDS011;35476;52.466;13.364;2022-11-18T13:46:33;8.85;;;7.43;;
49572;SDS011;35476;52.466;13.364;2022-11-18T13:48:58;11.27;;;8.18;;
49572;SDS011;35476;52.466;13.364;2022-11-18T13:51:24;9.35;;;7.75;;
49572;SDS011;35476;52.466;13.364;2022-11-18T13:53:49;9.77;;;7.85;;
49572;SDS011;35476;52.466;13.364;2022-11-18T13:56:16;10.18;;;7.78;;
49572;SDS011;35476;52.466;13.364;2022-11-18T13:58:43;8.70;;;7.18;;
49572;SDS011;35476;52.466;13.364;2022-11-18T14:01:22;10.20;;;7.32;;
49572;SDS011;35476;52.466;13.364;2022-11-18T14:04:22;8.70;;;6.90;;
49572;SDS011;35476;52.466;13.364;2022-11-18T14:06:40;13.93;;;7.75;;
49572;SDS011;35476;52.466;13.364;2022-11-18T14:09:22;10.57;;;7.18;;
49572;SDS011;35476;52.466;13.364;2022-11-18T14:14:35;11.15;;;7.75;;
49572;SDS011;35476;52.466;13.364;2022-11-18T14:19:30;11.95;;;6.72;;
49572;SDS011;35476;52.466;13.364;2022-11-18T14:22:29;9.98;;;7.03;;
49572;SDS011;35476;52.466;13.364;2022-11-18T14:33:07;7.53;;;6.25;;
49572;SDS011;35476;52.466;13.364;2022-11-18T14:35:32;8.48;;;6.43;;
49572;SDS011;35476;52.466;13.364;2022-11-18T14:37:58;10.77;;;6.15;;
49572;SDS011;35476;52.466;13.364;2022-11-18T14:40:23;10.18;;;7.00;;
49572;SDS011;35476;52.466;13.364;2022-11-18T14:42:48;12.40;;;7.00;;
49572;SDS011;35476;52.466;13.364;2022-11-18T14:45:13;9.93;;;7.33;;
49572;SDS011;35476;52.466;13.364;2022-11-18T14:47:39;11.20;;;7.50;;
49572;SDS011;35476;52.466;13.364;2022-11-18T14:50:10;9.90;;;7.28;;
49572;SDS011;35476;52.466;13.364;2022-11-18T14:52:35;8.93;;;7.13;;
49572;SDS011;35476;52.466;13.364;2022-11-18T14:55:00;9.25;;;5.95;;
49572;SDS011;35476;52.466;13.364;2022-11-18T14:57:26;7.50;;;6.05;;
49572;SDS011;35476;52.466;13.364;2022-11-18T14:59:51;6.60;;;5.38;;
49572;SDS011;35476;52.466;13.364;2022-11-18T15:02:16;5.97;;;4.45;;
49572;SDS011;35476;52.466;13.364;2022-11-18T15:04:41;4.95;;;4.13;;
49572;SDS011;35476;52.466;13.364;2022-11-18T15:07:16;8.43;;;5.60;;
49572;SDS011;35476;52.466;13.364;2022-11-18T15:09:41;5.65;;;4.30;;
49572;SDS011;35476;52.466;13.364;2022-11-18T15:12:06;7.82;;;4.97;;
49572;SDS011;35476;52.466;13.364;2022-11-18T15:14:31;7.03;;;4.40;;
49572;SDS011;35476;52.466;13.364;2022-11-18T15:16:58;6.63;;;4.40;;
49572;SDS011;35476;52.466;13.364;2022-11-18T15:19:24;9.20;;;4.75;;
49572;SDS011;35476;52.466;13.364;2022-11-18T15:21:49;9.97;;;4.77;;
49572;SDS011;35476;52.466;13.364;2022-11-18T15:24:14;8.00;;;4.47;;
49572;SDS011;35476;52.466;13.364;2022-11-18T15:26:40;7.20;;;4.70;;
49572;SDS011;35476;52.466;13.364;2022-11-18T15:29:07;9.15;;;5.15;;
49572;SDS011;35476;52.466;13.364;2022-11-18T15:31:35;7.95;;;5.20;;
49572;SDS011;35476;52.466;13.364;2022-11-18T15:34:00;6.18;;;3.97;;
49572;SDS011;35476;52.466;13.364;2022-11-18T15:36:25;9.10;;;5.53;;
49572;SDS011;35476;52.466;13.364;2022-11-18T15:38:51;6.88;;;4.60;;
49572;SDS011;35476;52.466;13.364;2022-11-18T15:41:21;7.07;;;4.70;;
49572;SDS011;35476;52.466;13.364;2022-11-18T15:43:47;6.90;;;4.80;;
49572;SDS011;35476;52.466;13.364;2022-11-18T15:46:12;8.70;;;5.30;;
49572;SDS011;35476;52.466;13.364;2022-11-18T15:48:38;13.27;;;5.97;;
49572;SDS011;35476;52.466;13.364;2022-11-18T15:51:03;9.05;;;6.53;;
49572;SDS011;35476;52.466;13.364;2022-11-18T15:53:29;8.50;;;5.28;;
49572;SDS011;35476;52.466;13.364;2022-11-18T15:56:22;8.37;;;5.57;;
49572;SDS011;35476;52.466;13.364;2022-11-18T15:58:55;8.43;;;5.75;;
49572;SDS011;35476;52.466;13.364;2022-11-18T16:01:21;9.32;;;6.13;;
49572;SDS011;35476;52.466;13.364;2022-11-18T16:03:47;10.13;;;5.70;;
49572;SDS011;35476;52.466;13.364;2022-11-18T16:06:12;9.68;;;5.88;;
49572;SDS011;35476;52.466;13.364;2022-11-18T16:08:37;9.18;;;6.13;;
49572;SDS011;35476;52.466;13.364;2022-11-18T16:11:03;13.02;;;6.35;;
49572;SDS011;35476;52.466;13.364;2022-11-18T16:13:47;9.48;;;6.18;;
49572;SDS011;35476;52.466;13.364;2022-11-18T16:18:43;12.55;;;6.60;;
49572;SDS011;35476;52.466;13.364;2022-11-18T16:21:08;13.02;;;6.07;;
49572;SDS011;35476;52.466;13.364;2022-11-18T16:23:33;9.05;;;5.65;;
49572;SDS011;35476;52.466;13.364;2022-11-18T16:25:58;18.13;;;8.13;;
49572;SDS011;35476;52.466;13.364;2022-11-18T16:28:24;10.30;;;6.60;;
49572;SDS011;35476;52.466;13.364;2022-11-18T16:30:50;8.95;;;6.03;;
49572;SDS011;35476;52.466;13.364;2022-11-18T16:33:34;12.85;;;6.68;;
49572;SDS011;35476;52.466;13.364;2022-11-18T16:35:59;12.70;;;7.15;;
49572;SDS011;35476;52.466;13.364;2022-11-18T16:38:25;12.07;;;7.75;;
49572;SDS011;35476;52.466;13.364;2022-11-18T16:40:54;13.63;;;6.90;;
49572;SDS011;35476;52.466;13.364;2022-11-18T16:43:19;11.40;;;8.00;;
49572;SDS011;35476;52.466;13.364;2022-11-18T16:45:51;12.93;;;8.17;;
49572;SDS011;35476;52.466;13.364;2022-11-18T16:48:17;11.00;;;7.65;;